Wind Star — C6CA9 — position and weather

sailwx.info

Track history (hours):
 
Tides and Currents Weather Stations Pressure Air Temp Water Temp Dewpoint Dewpoint Depression Visibility Wind Speed Wind Dir Waves Ship Positions

Wind Star

Operator: Holland America Line

Last reported at 2016-May-29 07:33 UTC. Time now 2016-Jun-01 03:42 UTC.
Position N 39°56' E 025°53'.

Length 134 m; draft 4.2 m.

Type: Passenger vessel. MMSI: 309163000.

Date/timePositionNaut miles runAvg speedWind from/ knotsBaromVisibWave heightAir tempDewpointWater temp
2016-May-29 07:33N 39°56' E 025°53'144 8.9
2016-May-28 15:30N 40°51' E 028°47'1010.2
2016-May-28 14:33N 40°57' E 028°57'2 0.2
2016-May-28 02:32N 40°57' E 028°60'6 6.6
2016-May-28 01:32N 40°52' E 028°54'  
2016-May-22 20:34N 37°08' E 024°54'8 7.7
2016-May-22 19:33N 37°15' E 024°58'8 7.9
2016-May-22 18:34N 37°20' E 025°05'9 9.1
2016-May-22 17:34N 37°27' E 025°12'5 5.3
2016-May-22 16:32N 37°27' E 025°19'0 0.0
2016-May-22 15:32N 37°27' E 025°19'0 0.0
2016-May-22 14:32N 37°27' E 025°19'0 0.0
2016-May-22 13:32N 37°27' E 025°19'0 0.0
2016-May-22 12:26N 37°27' E 025°19'0 0.0
2016-May-22 11:29N 37°27' E 025°19'0 0.0
2016-May-22 10:32N 37°27' E 025°19'0 0.0
2016-May-22 09:26N 37°27' E 025°19'0 0.1
2016-May-22 08:32N 37°27' E 025°19'0 0.0
2016-May-22 07:32N 37°27' E 025°19'0 0.0
2016-May-22 06:32N 37°27' E 025°19'0 0.0
2016-May-22 05:23N 37°27' E 025°19'0 0.0
2016-May-22 04:29N 37°27' E 025°19'2 2.3
2016-May-22 03:33N 37°28' E 025°17'7 6.8
2016-May-22 02:33N 37°29' E 025°08'9 6.3
2016-May-22 01:04N 37°31' E 024°57'3 6.5
2016-May-22 00:32N 37°32' E 024°53'7 6.9
2016-May-21 23:33N 37°30' E 024°44'22 6.9
2016-May-21 20:22N 37°31' E 024°17'6 6.7
2016-May-21 19:31N 37°34' E 024°11'7 6.7
2016-May-21 18:32N 37°37' E 024°04'6 5.6
2016-May-21 17:32N 37°38' E 023°57'9 8.9
2016-May-21 16:33N 37°38' E 023°46'8 8.2
2016-May-21 15:33N 37°45' E 023°39'8 8.4
2016-May-21 14:33N 37°53' E 023°37'4 3.4
2016-May-21 13:25N 37°56' E 023°38'0 0.0
2016-May-21 12:31N 37°56' E 023°38'0 0.0
2016-May-21 11:31N 37°56' E 023°38'0 0.0
2016-May-21 10:31N 37°56' E 023°38'0 0.0
2016-May-21 09:31N 37°56' E 023°38'0 0.0
2016-May-21 08:33N 37°56' E 023°38'0 0.0
2016-May-21 07:33N 37°56' E 023°38'0 0.0
2016-May-21 06:34N 37°56' E 023°38'0 0.0
2016-May-21 05:33N 37°56' E 023°38'0 0.0
2016-May-21 04:33N 37°56' E 023°38'1 1.5
2016-May-21 03:33N 37°56' E 023°37'3 2.8
2016-May-21 02:33N 37°53' E 023°38'6 6.2
2016-May-21 01:33N 37°47' E 023°41'7 7.2
2016-May-21 00:33N 37°41' E 023°45'7 7.3
2016-May-20 23:33N 37°36' E 023°52'7 6.8
2016-May-20 22:32N 37°33' E 023°60'9 6.5
2016-May-20 21:07N 37°32' E 024°11'4 6.8
2016-May-20 20:32N 37°31' E 024°16'16 7.8
2016-May-20 18:30N 37°30' E 024°36'8 7.6
2016-May-20 17:26N 37°31' E 024°46'9 7.8
2016-May-20 16:16N 37°32' E 024°58'6 8.1
2016-May-20 15:33N 37°30' E 025°05'8 8.1
2016-May-20 14:33N 37°28' E 025°15'4 3.6
2016-May-20 13:32N 37°27' E 025°19'0 0.0
2016-May-20 12:32N 37°27' E 025°19'0 0.0
2016-May-20 11:32N 37°27' E 025°19'0 0.0
2016-May-20 09:32N 37°27' E 025°19'0 0.0
2016-May-20 08:32N 37°27' E 025°19'0 0.0
2016-May-20 07:29N 37°27' E 025°19'0 0.0
2016-May-20 06:14N 37°27' E 025°19'0 0.0
2016-May-20 04:23N 37°27' E 025°19'1 1.8
2016-May-20 03:34N 37°26' E 025°17'6 6.3
2016-May-20 02:34N 37°20' E 025°18'6 6.4
2016-May-20 01:34N 37°14' E 025°19'6 6.2
2016-May-20 00:34N 37°08' E 025°20'7 7.3
2016-May-19 23:34N 37°01' E 025°17'  
Track history (hours):
 
Tides and Currents Weather Stations Pressure Air Temp Water Temp Dewpoint Dewpoint Depression Visibility Wind Speed Wind Dir Waves Ship Positions

Wind Star

Operator: Holland America Line

Last reported at 2016-May-29 07:33 UTC. Time now 2016-Jun-01 03:42 UTC.
Position N 39°56' E 025°53'.

Length 134 m; draft 4.2 m.

Type: Passenger vessel. MMSI: 309163000.

Date/timePositionNaut miles runAvg speedWind from/ knotsBaromVisibWave heightAir tempDewpointWater temp
2016-May-29 07:33N 39°56' E 025°53'144 8.9
2016-May-28 15:30N 40°51' E 028°47'1010.2
2016-May-28 14:33N 40°57' E 028°57'2 0.2
2016-May-28 02:32N 40°57' E 028°60'6 6.6
2016-May-28 01:32N 40°52' E 028°54'  
2016-May-22 20:34N 37°08' E 024°54'8 7.7
2016-May-22 19:33N 37°15' E 024°58'8 7.9
2016-May-22 18:34N 37°20' E 025°05'9 9.1
2016-May-22 17:34N 37°27' E 025°12'5 5.3
2016-May-22 16:32N 37°27' E 025°19'0 0.0
2016-May-22 15:32N 37°27' E 025°19'0 0.0
2016-May-22 14:32N 37°27' E 025°19'0 0.0
2016-May-22 13:32N 37°27' E 025°19'0 0.0
2016-May-22 12:26N 37°27' E 025°19'0 0.0
2016-May-22 11:29N 37°27' E 025°19'0 0.0
2016-May-22 10:32N 37°27' E 025°19'0 0.0
2016-May-22 09:26N 37°27' E 025°19'0 0.1
2016-May-22 08:32N 37°27' E 025°19'0 0.0
2016-May-22 07:32N 37°27' E 025°19'0 0.0
2016-May-22 06:32N 37°27' E 025°19'0 0.0
2016-May-22 05:23N 37°27' E 025°19'0 0.0
2016-May-22 04:29N 37°27' E 025°19'2 2.3
2016-May-22 03:33N 37°28' E 025°17'7 6.8
2016-May-22 02:33N 37°29' E 025°08'9 6.3
2016-May-22 01:04N 37°31' E 024°57'3 6.5
2016-May-22 00:32N 37°32' E 024°53'7 6.9
2016-May-21 23:33N 37°30' E 024°44'22 6.9
2016-May-21 20:22N 37°31' E 024°17'6 6.7
2016-May-21 19:31N 37°34' E 024°11'7 6.7
2016-May-21 18:32N 37°37' E 024°04'6 5.6
2016-May-21 17:32N 37°38' E 023°57'9 8.9
2016-May-21 16:33N 37°38' E 023°46'8 8.2
2016-May-21 15:33N 37°45' E 023°39'8 8.4
2016-May-21 14:33N 37°53' E 023°37'4 3.4
2016-May-21 13:25N 37°56' E 023°38'0 0.0
2016-May-21 12:31N 37°56' E 023°38'0 0.0
2016-May-21 11:31N 37°56' E 023°38'0 0.0
2016-May-21 10:31N 37°56' E 023°38'0 0.0
2016-May-21 09:31N 37°56' E 023°38'0 0.0
2016-May-21 08:33N 37°56' E 023°38'0 0.0
2016-May-21 07:33N 37°56' E 023°38'0 0.0
2016-May-21 06:34N 37°56' E 023°38'0 0.0
2016-May-21 05:33N 37°56' E 023°38'0 0.0
2016-May-21 04:33N 37°56' E 023°38'1 1.5
2016-May-21 03:33N 37°56' E 023°37'3 2.8
2016-May-21 02:33N 37°53' E 023°38'6 6.2
2016-May-21 01:33N 37°47' E 023°41'7 7.2
2016-May-21 00:33N 37°41' E 023°45'7 7.3
2016-May-20 23:33N 37°36' E 023°52'7 6.8
2016-May-20 22:32N 37°33' E 023°60'9 6.5
2016-May-20 21:07N 37°32' E 024°11'4 6.8
2016-May-20 20:32N 37°31' E 024°16'16 7.8
2016-May-20 18:30N 37°30' E 024°36'8 7.6
2016-May-20 17:26N 37°31' E 024°46'9 7.8
2016-May-20 16:16N 37°32' E 024°58'6 8.1
2016-May-20 15:33N 37°30' E 025°05'8 8.1
2016-May-20 14:33N 37°28' E 025°15'4 3.6
2016-May-20 13:32N 37°27' E 025°19'0 0.0
2016-May-20 12:32N 37°27' E 025°19'0 0.0
2016-May-20 11:32N 37°27' E 025°19'0 0.0
2016-May-20 09:32N 37°27' E 025°19'0 0.0
2016-May-20 08:32N 37°27' E 025°19'0 0.0
2016-May-20 07:29N 37°27' E 025°19'0 0.0
2016-May-20 06:14N 37°27' E 025°19'0 0.0
2016-May-20 04:23N 37°27' E 025°19'1 1.8
2016-May-20 03:34N 37°26' E 025°17'6 6.3
2016-May-20 02:34N 37°20' E 025°18'6 6.4
2016-May-20 01:34N 37°14' E 025°19'6 6.2
2016-May-20 00:34N 37°08' E 025°20'7 7.3
2016-May-19 23:34N 37°01' E 025°17'  

Dump ship's entire track history